sensor_id;sensor_type;location;lat;lon;timestamp;P1;durP1;ratioP1;P2;durP2;ratioP2
20140;SDS011;10231;47.702;9.826;2023-04-06T00:00:30;13.10;;;11.80;;
20140;SDS011;10231;47.702;9.826;2023-04-06T00:02:56;13.83;;;12.33;;
20140;SDS011;10231;47.702;9.826;2023-04-06T00:05:21;14.60;;;12.23;;
20140;SDS011;10231;47.702;9.826;2023-04-06T00:07:47;13.50;;;12.10;;
20140;SDS011;10231;47.702;9.826;2023-04-06T00:10:13;13.20;;;11.90;;
20140;SDS011;10231;47.702;9.826;2023-04-06T00:12:39;13.97;;;12.57;;
20140;SDS011;10231;47.702;9.826;2023-04-06T00:15:05;13.43;;;12.07;;
20140;SDS011;10231;47.702;9.826;2023-04-06T00:17:31;13.00;;;11.43;;
20140;SDS011;10231;47.702;9.826;2023-04-06T00:19:56;12.67;;;11.37;;
20140;SDS011;10231;47.702;9.826;2023-04-06T00:22:22;13.83;;;11.83;;
20140;SDS011;10231;47.702;9.826;2023-04-06T00:24:48;15.37;;;12.57;;
20140;SDS011;10231;47.702;9.826;2023-04-06T00:27:13;13.20;;;11.87;;
20140;SDS011;10231;47.702;9.826;2023-04-06T00:29:39;13.77;;;12.37;;
20140;SDS011;10231;47.702;9.826;2023-04-06T00:32:05;16.00;;;13.37;;
20140;SDS011;10231;47.702;9.826;2023-04-06T00:34:30;13.83;;;11.70;;
20140;SDS011;10231;47.702;9.826;2023-04-06T00:36:56;13.77;;;12.33;;
20140;SDS011;10231;47.702;9.826;2023-04-06T00:39:22;14.20;;;12.80;;
20140;SDS011;10231;47.702;9.826;2023-04-06T00:41:49;13.97;;;12.20;;
20140;SDS011;10231;47.702;9.826;2023-04-06T00:44:17;12.67;;;11.27;;
20140;SDS011;10231;47.702;9.826;2023-04-06T00:46:43;12.47;;;11.27;;
20140;SDS011;10231;47.702;9.826;2023-04-06T00:49:09;13.30;;;11.73;;
20140;SDS011;10231;47.702;9.826;2023-04-06T00:51:35;13.30;;;11.90;;
20140;SDS011;10231;47.702;9.826;2023-04-06T00:54:01;12.27;;;11.07;;
20140;SDS011;10231;47.702;9.826;2023-04-06T00:56:26;12.53;;;11.23;;
20140;SDS011;10231;47.702;9.826;2023-04-06T00:58:52;11.73;;;10.60;;
20140;SDS011;10231;47.702;9.826;2023-04-06T01:01:18;13.03;;;11.40;;
20140;SDS011;10231;47.702;9.826;2023-04-06T01:03:44;12.53;;;11.23;;
20140;SDS011;10231;47.702;9.826;2023-04-06T01:06:13;12.63;;;11.33;;
20140;SDS011;10231;47.702;9.826;2023-04-06T01:08:39;13.00;;;11.50;;
20140;SDS011;10231;47.702;9.826;2023-04-06T01:11:05;12.70;;;11.37;;
20140;SDS011;10231;47.702;9.826;2023-04-06T01:13:30;13.10;;;11.77;;
20140;SDS011;10231;47.702;9.826;2023-04-06T01:15:56;13.43;;;11.33;;
20140;SDS011;10231;47.702;9.826;2023-04-06T01:18:25;13.17;;;11.63;;
20140;SDS011;10231;47.702;9.826;2023-04-06T01:20:51;12.40;;;10.73;;
20140;SDS011;10231;47.702;9.826;2023-04-06T01:23:17;12.43;;;11.10;;
20140;SDS011;10231;47.702;9.826;2023-04-06T01:25:43;12.53;;;10.73;;
20140;SDS011;10231;47.702;9.826;2023-04-06T01:28:08;12.77;;;11.27;;
20140;SDS011;10231;47.702;9.826;2023-04-06T01:30:34;13.43;;;12.13;;
20140;SDS011;10231;47.702;9.826;2023-04-06T01:33:00;13.93;;;11.60;;
20140;SDS011;10231;47.702;9.826;2023-04-06T01:35:26;13.00;;;11.80;;
20140;SDS011;10231;47.702;9.826;2023-04-06T01:37:52;11.50;;;10.30;;
20140;SDS011;10231;47.702;9.826;2023-04-06T01:40:17;12.13;;;10.93;;
20140;SDS011;10231;47.702;9.826;2023-04-06T01:42:43;13.37;;;11.97;;
20140;SDS011;10231;47.702;9.826;2023-04-06T01:45:09;12.60;;;11.17;;
20140;SDS011;10231;47.702;9.826;2023-04-06T01:47:34;12.37;;;11.20;;
20140;SDS011;10231;47.702;9.826;2023-04-06T01:50:00;12.83;;;11.53;;
20140;SDS011;10231;47.702;9.826;2023-04-06T01:52:27;13.37;;;12.10;;
20140;SDS011;10231;47.702;9.826;2023-04-06T01:54:53;14.77;;;12.53;;
20140;SDS011;10231;47.702;9.826;2023-04-06T01:57:19;12.60;;;11.37;;
20140;SDS011;10231;47.702;9.826;2023-04-06T01:59:45;13.83;;;12.37;;
20140;SDS011;10231;47.702;9.826;2023-04-06T02:02:10;13.03;;;11.83;;
20140;SDS011;10231;47.702;9.826;2023-04-06T02:04:37;14.53;;;11.93;;
20140;SDS011;10231;47.702;9.826;2023-04-06T02:07:03;13.07;;;11.57;;
20140;SDS011;10231;47.702;9.826;2023-04-06T02:09:29;12.43;;;11.23;;
20140;SDS011;10231;47.702;9.826;2023-04-06T02:11:54;14.47;;;11.90;;
20140;SDS011;10231;47.702;9.826;2023-04-06T02:14:20;12.53;;;11.37;;
20140;SDS011;10231;47.702;9.826;2023-04-06T02:16:46;13.53;;;11.77;;
20140;SDS011;10231;47.702;9.826;2023-04-06T02:19:11;13.30;;;11.90;;
20140;SDS011;10231;47.702;9.826;2023-04-06T02:21:37;12.70;;;11.37;;
20140;SDS011;10231;47.702;9.826;2023-04-06T02:24:03;12.57;;;11.27;;
20140;SDS011;10231;47.702;9.826;2023-04-06T02:26:28;13.07;;;11.77;;
20140;SDS011;10231;47.702;9.826;2023-04-06T02:28:54;13.10;;;11.70;;
20140;SDS011;10231;47.702;9.826;2023-04-06T02:31:20;13.37;;;10.87;;
20140;SDS011;10231;47.702;9.826;2023-04-06T02:33:45;11.87;;;10.63;;
20140;SDS011;10231;47.702;9.826;2023-04-06T02:36:11;13.17;;;11.30;;
20140;SDS011;10231;47.702;9.826;2023-04-06T02:38:36;12.70;;;11.50;;
20140;SDS011;10231;47.702;9.826;2023-04-06T02:41:02;10.97;;;9.90;;
20140;SDS011;10231;47.702;9.826;2023-04-06T02:43:27;12.30;;;11.10;;
20140;SDS011;10231;47.702;9.826;2023-04-06T02:45:53;12.20;;;10.93;;
20140;SDS011;10231;47.702;9.826;2023-04-06T02:48:18;12.50;;;11.07;;
20140;SDS011;10231;47.702;9.826;2023-04-06T02:50:44;12.97;;;11.57;;
20140;SDS011;10231;47.702;9.826;2023-04-06T02:53:10;12.00;;;10.80;;
20140;SDS011;10231;47.702;9.826;2023-04-06T02:55:35;13.60;;;12.07;;
20140;SDS011;10231;47.702;9.826;2023-04-06T02:58:01;12.50;;;11.20;;
20140;SDS011;10231;47.702;9.826;2023-04-06T03:00:26;12.53;;;11.23;;
20140;SDS011;10231;47.702;9.826;2023-04-06T03:02:52;12.87;;;11.40;;
20140;SDS011;10231;47.702;9.826;2023-04-06T03:05:17;14.37;;;10.73;;
20140;SDS011;10231;47.702;9.826;2023-04-06T03:07:43;13.13;;;11.83;;
20140;SDS011;10231;47.702;9.826;2023-04-06T03:10:08;12.60;;;11.40;;
20140;SDS011;10231;47.702;9.826;2023-04-06T03:12:35;12.10;;;10.87;;
20140;SDS011;10231;47.702;9.826;2023-04-06T03:15:00;12.60;;;11.33;;
20140;SDS011;10231;47.702;9.826;2023-04-06T03:17:26;12.70;;;10.87;;
20140;SDS011;10231;47.702;9.826;2023-04-06T03:19:51;11.90;;;10.57;;
20140;SDS011;10231;47.702;9.826;2023-04-06T03:22:17;11.83;;;10.63;;
20140;SDS011;10231;47.702;9.826;2023-04-06T03:24:42;13.27;;;10.97;;
20140;SDS011;10231;47.702;9.826;2023-04-06T03:27:08;15.20;;;10.77;;
20140;SDS011;10231;47.702;9.826;2023-04-06T03:29:34;11.73;;;10.60;;
20140;SDS011;10231;47.702;9.826;2023-04-06T03:32:00;13.40;;;11.20;;
20140;SDS011;10231;47.702;9.826;2023-04-06T03:34:26;11.80;;;10.70;;
20140;SDS011;10231;47.702;9.826;2023-04-06T03:36:51;13.20;;;11.90;;
20140;SDS011;10231;47.702;9.826;2023-04-06T03:39:17;12.17;;;10.93;;
20140;SDS011;10231;47.702;9.826;2023-04-06T03:41:43;11.47;;;10.27;;
20140;SDS011;10231;47.702;9.826;2023-04-06T03:44:09;13.30;;;10.70;;
20140;SDS011;10231;47.702;9.826;2023-04-06T03:46:35;12.20;;;10.80;;
20140;SDS011;10231;47.702;9.826;2023-04-06T03:49:01;12.03;;;10.80;;
20140;SDS011;10231;47.702;9.826;2023-04-06T03:51:27;12.40;;;11.17;;
20140;SDS011;10231;47.702;9.826;2023-04-06T03:53:55;12.77;;;10.63;;
20140;SDS011;10231;47.702;9.826;2023-04-06T03:56:21;12.63;;;11.33;;
20140;SDS011;10231;47.702;9.826;2023-04-06T03:58:47;11.83;;;10.47;;
20140;SDS011;10231;47.702;9.826;2023-04-06T04:01:18;13.30;;;10.83;;
20140;SDS011;10231;47.702;9.826;2023-04-06T04:03:44;13.17;;;10.47;;
20140;SDS011;10231;47.702;9.826;2023-04-06T04:06:09;11.40;;;10.30;;
20140;SDS011;10231;47.702;9.826;2023-04-06T04:08:35;11.80;;;10.30;;
20140;SDS011;10231;47.702;9.826;2023-04-06T04:11:01;11.73;;;10.50;;
20140;SDS011;10231;47.702;9.826;2023-04-06T04:13:26;12.20;;;10.37;;
20140;SDS011;10231;47.702;9.826;2023-04-06T04:15:52;12.07;;;10.70;;
20140;SDS011;10231;47.702;9.826;2023-04-06T04:18:18;12.10;;;10.83;;
20140;SDS011;10231;47.702;9.826;2023-04-06T04:20:43;12.03;;;10.77;;
20140;SDS011;10231;47.702;9.826;2023-04-06T04:23:09;12.63;;;11.10;;
20140;SDS011;10231;47.702;9.826;2023-04-06T04:25:35;13.10;;;10.87;;
20140;SDS011;10231;47.702;9.826;2023-04-06T04:28:01;11.10;;;9.87;;
20140;SDS011;10231;47.702;9.826;2023-04-06T04:30:27;12.03;;;10.83;;
20140;SDS011;10231;47.702;9.826;2023-04-06T04:32:53;12.00;;;10.80;;
20140;SDS011;10231;47.702;9.826;2023-04-06T04:35:18;12.27;;;10.53;;
20140;SDS011;10231;47.702;9.826;2023-04-06T04:37:44;12.27;;;10.97;;
20140;SDS011;10231;47.702;9.826;2023-04-06T04:40:10;11.93;;;10.53;;
20140;SDS011;10231;47.702;9.826;2023-04-06T04:42:36;13.10;;;11.73;;
20140;SDS011;10231;47.702;9.826;2023-04-06T04:45:01;11.30;;;9.90;;
20140;SDS011;10231;47.702;9.826;2023-04-06T04:47:27;12.43;;;10.70;;
20140;SDS011;10231;47.702;9.826;2023-04-06T04:49:52;13.37;;;11.90;;
20140;SDS011;10231;47.702;9.826;2023-04-06T04:52:18;12.90;;;11.57;;
20140;SDS011;10231;47.702;9.826;2023-04-06T04:54:44;14.47;;;12.07;;
20140;SDS011;10231;47.702;9.826;2023-04-06T04:57:11;12.33;;;10.93;;
20140;SDS011;10231;47.702;9.826;2023-04-06T04:59:37;13.30;;;11.90;;
20140;SDS011;10231;47.702;9.826;2023-04-06T05:02:03;12.17;;;10.97;;
20140;SDS011;10231;47.702;9.826;2023-04-06T05:04:28;12.10;;;10.83;;
20140;SDS011;10231;47.702;9.826;2023-04-06T05:07:15;12.43;;;9.53;;
20140;SDS011;10231;47.702;9.826;2023-04-06T05:09:40;12.93;;;11.10;;
20140;SDS011;10231;47.702;9.826;2023-04-06T05:12:06;11.83;;;10.17;;
20140;SDS011;10231;47.702;9.826;2023-04-06T05:14:31;12.90;;;10.83;;
20140;SDS011;10231;47.702;9.826;2023-04-06T05:16:57;13.10;;;11.80;;
20140;SDS011;10231;47.702;9.826;2023-04-06T05:19:23;13.03;;;11.10;;
20140;SDS011;10231;47.702;9.826;2023-04-06T05:21:48;13.20;;;11.80;;
20140;SDS011;10231;47.702;9.826;2023-04-06T05:24:14;13.40;;;11.97;;
20140;SDS011;10231;47.702;9.826;2023-04-06T05:26:40;14.30;;;12.87;;
20140;SDS011;10231;47.702;9.826;2023-04-06T05:29:06;14.63;;;10.70;;
20140;SDS011;10231;47.702;9.826;2023-04-06T05:31:32;15.23;;;12.40;;
20140;SDS011;10231;47.702;9.826;2023-04-06T05:33:57;15.43;;;11.77;;
20140;SDS011;10231;47.702;9.826;2023-04-06T05:36:23;11.97;;;10.40;;
20140;SDS011;10231;47.702;9.826;2023-04-06T05:38:48;16.00;;;13.00;;
20140;SDS011;10231;47.702;9.826;2023-04-06T05:41:15;13.73;;;12.33;;
20140;SDS011;10231;47.702;9.826;2023-04-06T05:43:41;12.53;;;11.20;;
20140;SDS011;10231;47.702;9.826;2023-04-06T05:46:07;14.23;;;12.00;;
20140;SDS011;10231;47.702;9.826;2023-04-06T05:48:32;11.90;;;10.70;;
20140;SDS011;10231;47.702;9.826;2023-04-06T05:50:58;12.97;;;11.67;;
20140;SDS011;10231;47.702;9.826;2023-04-06T05:53:24;13.23;;;10.50;;
20140;SDS011;10231;47.702;9.826;2023-04-06T05:55:51;15.00;;;11.17;;
20140;SDS011;10231;47.702;9.826;2023-04-06T05:58:16;12.33;;;11.13;;
20140;SDS011;10231;47.702;9.826;2023-04-06T06:00:42;14.97;;;11.37;;
20140;SDS011;10231;47.702;9.826;2023-04-06T06:03:08;14.57;;;10.67;;
20140;SDS011;10231;47.702;9.826;2023-04-06T06:05:34;12.83;;;11.33;;
20140;SDS011;10231;47.702;9.826;2023-04-06T06:07:59;11.27;;;10.00;;
20140;SDS011;10231;47.702;9.826;2023-04-06T06:10:27;12.77;;;11.50;;
20140;SDS011;10231;47.702;9.826;2023-04-06T06:12:52;12.83;;;10.87;;
20140;SDS011;10231;47.702;9.826;2023-04-06T06:15:18;14.10;;;10.70;;
20140;SDS011;10231;47.702;9.826;2023-04-06T06:17:43;11.83;;;9.87;;
20140;SDS011;10231;47.702;9.826;2023-04-06T06:20:09;11.27;;;10.17;;
20140;SDS011;10231;47.702;9.826;2023-04-06T06:22:35;11.50;;;10.27;;
20140;SDS011;10231;47.702;9.826;2023-04-06T06:25:01;12.17;;;10.20;;
20140;SDS011;10231;47.702;9.826;2023-04-06T06:27:27;13.10;;;11.07;;
20140;SDS011;10231;47.702;9.826;2023-04-06T06:29:52;11.97;;;10.70;;
20140;SDS011;10231;47.702;9.826;2023-04-06T06:32:18;12.37;;;10.73;;
20140;SDS011;10231;47.702;9.826;2023-04-06T06:34:44;12.50;;;11.03;;
20140;SDS011;10231;47.702;9.826;2023-04-06T06:37:09;11.47;;;10.20;;
20140;SDS011;10231;47.702;9.826;2023-04-06T06:39:35;12.90;;;11.50;;
20140;SDS011;10231;47.702;9.826;2023-04-06T06:42:00;12.10;;;10.23;;
20140;SDS011;10231;47.702;9.826;2023-04-06T06:44:26;13.47;;;12.07;;
20140;SDS011;10231;47.702;9.826;2023-04-06T06:46:52;11.67;;;10.47;;
20140;SDS011;10231;47.702;9.826;2023-04-06T06:49:18;11.60;;;10.40;;
20140;SDS011;10231;47.702;9.826;2023-04-06T06:51:44;12.90;;;10.63;;
20140;SDS011;10231;47.702;9.826;2023-04-06T06:54:11;11.93;;;9.80;;
20140;SDS011;10231;47.702;9.826;2023-04-06T06:56:37;11.50;;;10.30;;
20140;SDS011;10231;47.702;9.826;2023-04-06T06:59:03;11.50;;;10.40;;
20140;SDS011;10231;47.702;9.826;2023-04-06T07:01:30;11.43;;;10.10;;
20140;SDS011;10231;47.702;9.826;2023-04-06T07:03:57;13.10;;;10.33;;
20140;SDS011;10231;47.702;9.826;2023-04-06T07:06:22;10.83;;;9.60;;
20140;SDS011;10231;47.702;9.826;2023-04-06T07:08:48;12.23;;;9.97;;
20140;SDS011;10231;47.702;9.826;2023-04-06T07:11:13;11.77;;;10.20;;
20140;SDS011;10231;47.702;9.826;2023-04-06T07:13:39;13.23;;;10.27;;
20140;SDS011;10231;47.702;9.826;2023-04-06T07:16:05;14.20;;;11.40;;
20140;SDS011;10231;47.702;9.826;2023-04-06T07:18:30;14.37;;;12.33;;
20140;SDS011;10231;47.702;9.826;2023-04-06T07:20:56;16.13;;;13.13;;
20140;SDS011;10231;47.702;9.826;2023-04-06T07:23:21;20.23;;;15.37;;
20140;SDS011;10231;47.702;9.826;2023-04-06T07:25:47;17.80;;;14.37;;
20140;SDS011;10231;47.702;9.826;2023-04-06T07:28:15;19.63;;;15.30;;
20140;SDS011;10231;47.702;9.826;2023-04-06T07:30:41;19.93;;;14.37;;
20140;SDS011;10231;47.702;9.826;2023-04-06T07:33:07;17.63;;;14.97;;
20140;SDS011;10231;47.702;9.826;2023-04-06T07:35:32;16.80;;;14.70;;
20140;SDS011;10231;47.702;9.826;2023-04-06T07:37:59;20.93;;;14.73;;
20140;SDS011;10231;47.702;9.826;2023-04-06T07:40:25;15.77;;;13.40;;
20140;SDS011;10231;47.702;9.826;2023-04-06T07:42:51;17.60;;;14.17;;
20140;SDS011;10231;47.702;9.826;2023-04-06T07:45:17;15.47;;;12.53;;
20140;SDS011;10231;47.702;9.826;2023-04-06T07:47:43;13.30;;;11.90;;
20140;SDS011;10231;47.702;9.826;2023-04-06T07:50:09;14.20;;;11.50;;
20140;SDS011;10231;47.702;9.826;2023-04-06T07:52:35;15.70;;;12.30;;
20140;SDS011;10231;47.702;9.826;2023-04-06T07:55:00;13.27;;;11.03;;
20140;SDS011;10231;47.702;9.826;2023-04-06T07:57:26;14.63;;;11.00;;
20140;SDS011;10231;47.702;9.826;2023-04-06T07:59:51;9.73;;;8.67;;
20140;SDS011;10231;47.702;9.826;2023-04-06T08:02:17;10.20;;;8.77;;
20140;SDS011;10231;47.702;9.826;2023-04-06T08:04:43;9.50;;;7.97;;
20140;SDS011;10231;47.702;9.826;2023-04-06T08:07:09;8.80;;;7.90;;
20140;SDS011;10231;47.702;9.826;2023-04-06T08:09:35;10.60;;;8.33;;
20140;SDS011;10231;47.702;9.826;2023-04-06T08:12:00;8.17;;;7.47;;
20140;SDS011;10231;47.702;9.826;2023-04-06T08:14:26;10.27;;;7.80;;
20140;SDS011;10231;47.702;9.826;2023-04-06T08:16:51;7.77;;;6.97;;
20140;SDS011;10231;47.702;9.826;2023-04-06T08:19:17;8.07;;;7.27;;
20140;SDS011;10231;47.702;9.826;2023-04-06T08:21:43;8.47;;;7.37;;
20140;SDS011;10231;47.702;9.826;2023-04-06T08:24:12;7.67;;;6.97;;
20140;SDS011;10231;47.702;9.826;2023-04-06T08:26:38;7.77;;;6.97;;
20140;SDS011;10231;47.702;9.826;2023-04-06T08:29:04;11.43;;;7.40;;
20140;SDS011;10231;47.702;9.826;2023-04-06T08:31:32;7.83;;;6.83;;
20140;SDS011;10231;47.702;9.826;2023-04-06T08:33:58;6.70;;;6.00;;
20140;SDS011;10231;47.702;9.826;2023-04-06T08:36:24;6.57;;;5.90;;
20140;SDS011;10231;47.702;9.826;2023-04-06T08:38:49;8.13;;;6.40;;
20140;SDS011;10231;47.702;9.826;2023-04-06T08:41:15;7.13;;;6.43;;
20140;SDS011;10231;47.702;9.826;2023-04-06T08:43:47;7.27;;;6.33;;
20140;SDS011;10231;47.702;9.826;2023-04-06T08:46:15;8.60;;;6.53;;
20140;SDS011;10231;47.702;9.826;2023-04-06T08:48:41;9.27;;;6.73;;
20140;SDS011;10231;47.702;9.826;2023-04-06T08:51:09;6.90;;;6.23;;
20140;SDS011;10231;47.702;9.826;2023-04-06T08:53:35;7.33;;;6.60;;
20140;SDS011;10231;47.702;9.826;2023-04-06T08:56:01;8.57;;;7.30;;
20140;SDS011;10231;47.702;9.826;2023-04-06T08:58:28;8.17;;;6.40;;
20140;SDS011;10231;47.702;9.826;2023-04-06T09:01:02;8.40;;;7.50;;
20140;SDS011;10231;47.702;9.826;2023-04-06T09:03:32;10.43;;;8.17;;
20140;SDS011;10231;47.702;9.826;2023-04-06T09:06:02;8.80;;;7.90;;
20140;SDS011;10231;47.702;9.826;2023-04-06T09:08:29;8.03;;;6.93;;
20140;SDS011;10231;47.702;9.826;2023-04-06T09:10:55;7.47;;;6.47;;
20140;SDS011;10231;47.702;9.826;2023-04-06T09:13:20;8.47;;;6.60;;
20140;SDS011;10231;47.702;9.826;2023-04-06T09:15:46;8.87;;;7.00;;
20140;SDS011;10231;47.702;9.826;2023-04-06T09:18:11;7.60;;;6.63;;
20140;SDS011;10231;47.702;9.826;2023-04-06T09:20:37;7.77;;;6.63;;
20140;SDS011;10231;47.702;9.826;2023-04-06T09:23:02;9.40;;;7.57;;
20140;SDS011;10231;47.702;9.826;2023-04-06T09:25:28;8.80;;;7.63;;
20140;SDS011;10231;47.702;9.826;2023-04-06T09:28:02;10.73;;;6.73;;
20140;SDS011;10231;47.702;9.826;2023-04-06T09:30:29;7.30;;;6.60;;
20140;SDS011;10231;47.702;9.826;2023-04-06T09:32:55;7.57;;;6.70;;
20140;SDS011;10231;47.702;9.826;2023-04-06T09:35:22;8.73;;;7.57;;
20140;SDS011;10231;47.702;9.826;2023-04-06T09:37:49;8.60;;;6.80;;
20140;SDS011;10231;47.702;9.826;2023-04-06T09:40:16;8.23;;;6.90;;
20140;SDS011;10231;47.702;9.826;2023-04-06T09:42:46;8.17;;;7.23;;
20140;SDS011;10231;47.702;9.826;2023-04-06T09:45:14;7.90;;;7.10;;
20140;SDS011;10231;47.702;9.826;2023-04-06T09:47:40;8.03;;;6.70;;
20140;SDS011;10231;47.702;9.826;2023-04-06T09:50:10;7.67;;;6.77;;
20140;SDS011;10231;47.702;9.826;2023-04-06T09:52:38;8.63;;;7.13;;
20140;SDS011;10231;47.702;9.826;2023-04-06T09:55:07;7.50;;;6.70;;
20140;SDS011;10231;47.702;9.826;2023-04-06T09:57:49;7.03;;;6.40;;
20140;SDS011;10231;47.702;9.826;2023-04-06T10:00:20;8.90;;;7.03;;
20140;SDS011;10231;47.702;9.826;2023-04-06T10:02:51;8.40;;;7.47;;
20140;SDS011;10231;47.702;9.826;2023-04-06T10:05:27;9.37;;;6.90;;
20140;SDS011;10231;47.702;9.826;2023-04-06T10:08:00;10.23;;;6.80;;
20140;SDS011;10231;47.702;9.826;2023-04-06T10:10:31;6.50;;;5.90;;
20140;SDS011;10231;47.702;9.826;2023-04-06T10:12:56;7.63;;;6.87;;
20140;SDS011;10231;47.702;9.826;2023-04-06T10:15:23;6.60;;;6.00;;
20140;SDS011;10231;47.702;9.826;2023-04-06T10:17:49;7.10;;;6.40;;
20140;SDS011;10231;47.702;9.826;2023-04-06T10:20:18;6.87;;;6.17;;
20140;SDS011;10231;47.702;9.826;2023-04-06T10:25:34;6.30;;;5.70;;
20140;SDS011;10231;47.702;9.826;2023-04-06T10:28:04;5.97;;;5.37;;
20140;SDS011;10231;47.702;9.826;2023-04-06T10:30:31;6.50;;;5.80;;
20140;SDS011;10231;47.702;9.826;2023-04-06T10:32:58;5.77;;;5.17;;
20140;SDS011;10231;47.702;9.826;2023-04-06T10:35:23;6.90;;;5.60;;
20140;SDS011;10231;47.702;9.826;2023-04-06T10:37:51;6.13;;;5.53;;
20140;SDS011;10231;47.702;9.826;2023-04-06T10:40:27;5.83;;;5.30;;
20140;SDS011;10231;47.702;9.826;2023-04-06T10:42:54;7.20;;;5.43;;
20140;SDS011;10231;47.702;9.826;2023-04-06T10:45:24;6.70;;;5.83;;
20140;SDS011;10231;47.702;9.826;2023-04-06T10:47:52;5.30;;;4.80;;
20140;SDS011;10231;47.702;9.826;2023-04-06T10:50:18;6.07;;;5.57;;
20140;SDS011;10231;47.702;9.826;2023-04-06T10:52:47;6.67;;;6.07;;
20140;SDS011;10231;47.702;9.826;2023-04-06T10:55:24;6.83;;;6.07;;
20140;SDS011;10231;47.702;9.826;2023-04-06T10:57:52;6.90;;;6.27;;
20140;SDS011;10231;47.702;9.826;2023-04-06T11:00:18;6.67;;;5.97;;
20140;SDS011;10231;47.702;9.826;2023-04-06T11:02:44;7.40;;;6.60;;
20140;SDS011;10231;47.702;9.826;2023-04-06T11:05:11;7.23;;;6.53;;
20140;SDS011;10231;47.702;9.826;2023-04-06T11:07:38;6.97;;;6.27;;
20140;SDS011;10231;47.702;9.826;2023-04-06T11:10:05;6.97;;;6.23;;
20140;SDS011;10231;47.702;9.826;2023-04-06T11:12:31;7.67;;;6.60;;
20140;SDS011;10231;47.702;9.826;2023-04-06T11:14:58;8.23;;;6.47;;
20140;SDS011;10231;47.702;9.826;2023-04-06T11:17:29;7.83;;;7.03;;
20140;SDS011;10231;47.702;9.826;2023-04-06T11:19:56;7.40;;;6.43;;
20140;SDS011;10231;47.702;9.826;2023-04-06T11:22:23;9.93;;;5.47;;
20140;SDS011;10231;47.702;9.826;2023-04-06T11:24:49;7.47;;;6.07;;
20140;SDS011;10231;47.702;9.826;2023-04-06T11:27:15;5.70;;;5.20;;
20140;SDS011;10231;47.702;9.826;2023-04-06T11:29:42;5.27;;;4.77;;
20140;SDS011;10231;47.702;9.826;2023-04-06T11:32:08;7.20;;;5.10;;
20140;SDS011;10231;47.702;9.826;2023-04-06T11:34:34;5.80;;;5.20;;
20140;SDS011;10231;47.702;9.826;2023-04-06T11:37:02;6.27;;;5.20;;
20140;SDS011;10231;47.702;9.826;2023-04-06T11:39:32;7.13;;;5.10;;
20140;SDS011;10231;47.702;9.826;2023-04-06T11:42:02;6.93;;;5.43;;
20140;SDS011;10231;47.702;9.826;2023-04-06T11:44:29;5.93;;;4.77;;
20140;SDS011;10231;47.702;9.826;2023-04-06T11:46:59;6.30;;;5.23;;
20140;SDS011;10231;47.702;9.826;2023-04-06T11:49:26;6.33;;;4.93;;
20140;SDS011;10231;47.702;9.826;2023-04-06T11:51:53;6.00;;;5.17;;
20140;SDS011;10231;47.702;9.826;2023-04-06T11:54:37;7.50;;;5.40;;
20140;SDS011;10231;47.702;9.826;2023-04-06T11:57:04;6.00;;;5.40;;
20140;SDS011;10231;47.702;9.826;2023-04-06T11:59:30;6.20;;;5.40;;
20140;SDS011;10231;47.702;9.826;2023-04-06T12:01:56;5.43;;;4.93;;
20140;SDS011;10231;47.702;9.826;2023-04-06T12:04:22;6.53;;;5.97;;
20140;SDS011;10231;47.702;9.826;2023-04-06T12:06:48;6.43;;;5.30;;
20140;SDS011;10231;47.702;9.826;2023-04-06T12:09:15;7.00;;;4.90;;
20140;SDS011;10231;47.702;9.826;2023-04-06T12:11:42;7.57;;;5.33;;
20140;SDS011;10231;47.702;9.826;2023-04-06T12:14:08;5.90;;;5.30;;
20140;SDS011;10231;47.702;9.826;2023-04-06T12:16:34;6.43;;;5.77;;
20140;SDS011;10231;47.702;9.826;2023-04-06T12:19:00;6.53;;;5.13;;
20140;SDS011;10231;47.702;9.826;2023-04-06T12:21:29;8.53;;;6.17;;
20140;SDS011;10231;47.702;9.826;2023-04-06T12:23:56;8.17;;;5.90;;
20140;SDS011;10231;47.702;9.826;2023-04-06T12:26:22;7.83;;;6.30;;
20140;SDS011;10231;47.702;9.826;2023-04-06T12:28:47;8.40;;;6.27;;
20140;SDS011;10231;47.702;9.826;2023-04-06T12:31:20;7.77;;;5.73;;
20140;SDS011;10231;47.702;9.826;2023-04-06T12:33:48;6.47;;;5.73;;
20140;SDS011;10231;47.702;9.826;2023-04-06T12:36:15;7.17;;;6.47;;
20140;SDS011;10231;47.702;9.826;2023-04-06T12:38:43;8.10;;;7.33;;
20140;SDS011;10231;47.702;9.826;2023-04-06T12:41:10;7.57;;;6.87;;
20140;SDS011;10231;47.702;9.826;2023-04-06T12:43:36;7.77;;;6.97;;
20140;SDS011;10231;47.702;9.826;2023-04-06T12:46:02;7.60;;;6.93;;
20140;SDS011;10231;47.702;9.826;2023-04-06T12:48:28;7.07;;;6.43;;
20140;SDS011;10231;47.702;9.826;2023-04-06T12:51:00;7.20;;;6.37;;
20140;SDS011;10231;47.702;9.826;2023-04-06T12:53:27;7.13;;;6.47;;
20140;SDS011;10231;47.702;9.826;2023-04-06T12:55:56;8.00;;;6.80;;
20140;SDS011;10231;47.702;9.826;2023-04-06T12:58:22;7.30;;;6.67;;
20140;SDS011;10231;47.702;9.826;2023-04-06T13:00:51;7.33;;;6.63;;
20140;SDS011;10231;47.702;9.826;2023-04-06T13:03:18;6.77;;;6.17;;
20140;SDS011;10231;47.702;9.826;2023-04-06T13:05:44;7.03;;;6.37;;
20140;SDS011;10231;47.702;9.826;2023-04-06T13:08:13;8.27;;;6.50;;
20140;SDS011;10231;47.702;9.826;2023-04-06T13:10:49;8.10;;;7.30;;
20140;SDS011;10231;47.702;9.826;2023-04-06T13:13:17;8.00;;;6.47;;
20140;SDS011;10231;47.702;9.826;2023-04-06T13:15:47;7.00;;;6.40;;
20140;SDS011;10231;47.702;9.826;2023-04-06T13:18:12;7.53;;;6.50;;
20140;SDS011;10231;47.702;9.826;2023-04-06T13:20:38;7.73;;;6.93;;
20140;SDS011;10231;47.702;9.826;2023-04-06T13:23:04;7.00;;;6.30;;
20140;SDS011;10231;47.702;9.826;2023-04-06T13:25:30;7.03;;;6.33;;
20140;SDS011;10231;47.702;9.826;2023-04-06T13:27:57;7.50;;;6.50;;
20140;SDS011;10231;47.702;9.826;2023-04-06T13:30:23;7.73;;;6.57;;
20140;SDS011;10231;47.702;9.826;2023-04-06T13:32:49;7.43;;;6.43;;
20140;SDS011;10231;47.702;9.826;2023-04-06T13:35:14;7.83;;;6.50;;
20140;SDS011;10231;47.702;9.826;2023-04-06T13:37:41;7.00;;;6.30;;
20140;SDS011;10231;47.702;9.826;2023-04-06T13:40:07;8.37;;;6.73;;
20140;SDS011;10231;47.702;9.826;2023-04-06T13:42:33;7.40;;;6.63;;
20140;SDS011;10231;47.702;9.826;2023-04-06T13:45:00;8.43;;;7.07;;
20140;SDS011;10231;47.702;9.826;2023-04-06T13:47:25;7.37;;;6.67;;
20140;SDS011;10231;47.702;9.826;2023-04-06T13:49:51;7.20;;;6.50;;
20140;SDS011;10231;47.702;9.826;2023-04-06T13:52:17;7.40;;;6.23;;
20140;SDS011;10231;47.702;9.826;2023-04-06T13:54:43;6.93;;;6.23;;
20140;SDS011;10231;47.702;9.826;2023-04-06T13:57:09;6.80;;;6.20;;
20140;SDS011;10231;47.702;9.826;2023-04-06T13:59:35;7.57;;;6.83;;
20140;SDS011;10231;47.702;9.826;2023-04-06T14:02:05;8.40;;;6.93;;
20140;SDS011;10231;47.702;9.826;2023-04-06T14:04:32;8.30;;;7.50;;
20140;SDS011;10231;47.702;9.826;2023-04-06T14:06:58;7.63;;;6.43;;
20140;SDS011;10231;47.702;9.826;2023-04-06T14:09:26;7.53;;;6.13;;
20140;SDS011;10231;47.702;9.826;2023-04-06T14:11:52;7.17;;;6.47;;
20140;SDS011;10231;47.702;9.826;2023-04-06T14:14:18;6.97;;;6.37;;
20140;SDS011;10231;47.702;9.826;2023-04-06T14:16:44;7.20;;;6.17;;
20140;SDS011;10231;47.702;9.826;2023-04-06T14:19:10;6.33;;;5.60;;
20140;SDS011;10231;47.702;9.826;2023-04-06T14:21:37;6.13;;;5.53;;
20140;SDS011;10231;47.702;9.826;2023-04-06T14:24:04;6.63;;;5.67;;
20140;SDS011;10231;47.702;9.826;2023-04-06T14:26:31;5.90;;;5.30;;
20140;SDS011;10231;47.702;9.826;2023-04-06T14:28:58;7.00;;;6.30;;
20140;SDS011;10231;47.702;9.826;2023-04-06T14:31:24;6.40;;;5.80;;